River Vale, Indiana
Current Conditions -  °F | °C
As of 8:53 PM on Saturday 25 Oct 2014 (Local Time) from KBMG Reporting Station
Clear Clear  
Wind Chill: 64°   Ceiling: Unl
Heat Index: 64°   Visibility: 10mi
Dew Point: 49°   Wind: 5mph
Humidity: 58%   Direction: 260°W
Pressure: 29.96"   Gusts: NA
Location:  38.7366°N, 86.4546°W
Report Text: KBMG 260053Z 26004KT 10SM CLR 18/09 A2996 RMK AO2 SLP144 T01780094
Loading
Personal Weather Stations






























Interactive Weather Map
Tropical Storm Tracking
New forecast layout! Learn more

10-Day Weather Forecast

Advertisements
Track Severe Weather on mobile